sensor_id;sensor_type;location;lat;lon;timestamp;P1;durP1;ratioP1;P2;durP2;ratioP2
75465;SDS011;64049;46.290;44.240;2022-10-16T00:01:06;5.40;;;1.92;;
75465;SDS011;64049;46.290;44.240;2022-10-16T00:03:40;4.78;;;2.08;;
75465;SDS011;64049;46.290;44.240;2022-10-16T00:06:08;7.68;;;2.20;;
75465;SDS011;64049;46.290;44.240;2022-10-16T00:08:35;6.80;;;1.85;;
75465;SDS011;64049;46.290;44.240;2022-10-16T00:11:03;5.10;;;1.83;;
75465;SDS011;64049;46.290;44.240;2022-10-16T00:13:31;6.85;;;2.17;;
75465;SDS011;64049;46.290;44.240;2022-10-16T00:15:59;5.65;;;1.70;;
75465;SDS011;64049;46.290;44.240;2022-10-16T00:18:26;5.72;;;2.15;;
75465;SDS011;64049;46.290;44.240;2022-10-16T00:20:52;5.22;;;1.88;;
75465;SDS011;64049;46.290;44.240;2022-10-16T00:23:18;4.88;;;1.85;;
75465;SDS011;64049;46.290;44.240;2022-10-16T00:25:45;4.53;;;1.83;;
75465;SDS011;64049;46.290;44.240;2022-10-16T00:28:19;5.25;;;1.63;;
75465;SDS011;64049;46.290;44.240;2022-10-16T00:30:45;7.10;;;1.98;;
75465;SDS011;64049;46.290;44.240;2022-10-16T00:33:11;4.30;;;1.60;;
75465;SDS011;64049;46.290;44.240;2022-10-16T00:35:37;4.82;;;1.55;;
75465;SDS011;64049;46.290;44.240;2022-10-16T00:38:03;5.28;;;1.48;;
75465;SDS011;64049;46.290;44.240;2022-10-16T00:40:29;4.95;;;1.77;;
75465;SDS011;64049;46.290;44.240;2022-10-16T00:42:55;6.65;;;2.15;;
75465;SDS011;64049;46.290;44.240;2022-10-16T00:45:21;5.43;;;2.10;;
75465;SDS011;64049;46.290;44.240;2022-10-16T00:47:47;6.15;;;2.00;;
75465;SDS011;64049;46.290;44.240;2022-10-16T00:52:56;5.75;;;1.95;;
75465;SDS011;64049;46.290;44.240;2022-10-16T00:55:24;4.80;;;1.80;;
75465;SDS011;64049;46.290;44.240;2022-10-16T00:57:51;6.65;;;2.08;;
75465;SDS011;64049;46.290;44.240;2022-10-16T01:00:19;6.05;;;2.30;;
75465;SDS011;64049;46.290;44.240;2022-10-16T01:02:57;6.93;;;2.50;;
75465;SDS011;64049;46.290;44.240;2022-10-16T01:05:30;4.93;;;1.92;;
75465;SDS011;64049;46.290;44.240;2022-10-16T01:08:08;6.47;;;2.65;;
75465;SDS011;64049;46.290;44.240;2022-10-16T01:10:44;5.75;;;2.08;;
75465;SDS011;64049;46.290;44.240;2022-10-16T01:13:19;6.25;;;2.15;;
75465;SDS011;64049;46.290;44.240;2022-10-16T01:15:54;6.53;;;2.47;;
75465;SDS011;64049;46.290;44.240;2022-10-16T01:18:52;6.18;;;1.95;;
75465;SDS011;64049;46.290;44.240;2022-10-16T01:21:24;6.38;;;2.30;;
75465;SDS011;64049;46.290;44.240;2022-10-16T01:28:54;6.18;;;1.90;;
75465;SDS011;64049;46.290;44.240;2022-10-16T01:31:24;6.20;;;2.05;;
75465;SDS011;64049;46.290;44.240;2022-10-16T01:34:35;9.02;;;2.33;;
75465;SDS011;64049;46.290;44.240;2022-10-16T01:36:47;5.63;;;1.85;;
75465;SDS011;64049;46.290;44.240;2022-10-16T01:39:29;6.10;;;2.25;;
75465;SDS011;64049;46.290;44.240;2022-10-16T01:42:03;6.78;;;2.17;;
75465;SDS011;64049;46.290;44.240;2022-10-16T01:44:33;6.65;;;2.38;;
75465;SDS011;64049;46.290;44.240;2022-10-16T01:47:01;7.22;;;2.50;;
75465;SDS011;64049;46.290;44.240;2022-10-16T01:49:30;5.55;;;2.10;;
75465;SDS011;64049;46.290;44.240;2022-10-16T01:51:59;6.10;;;1.95;;
75465;SDS011;64049;46.290;44.240;2022-10-16T01:54:30;6.85;;;2.25;;
75465;SDS011;64049;46.290;44.240;2022-10-16T01:56:58;7.50;;;2.40;;
75465;SDS011;64049;46.290;44.240;2022-10-16T01:59:26;8.50;;;2.22;;
75465;SDS011;64049;46.290;44.240;2022-10-16T02:01:58;6.18;;;2.40;;
75465;SDS011;64049;46.290;44.240;2022-10-16T02:04:28;6.60;;;2.20;;
75465;SDS011;64049;46.290;44.240;2022-10-16T02:06:58;6.65;;;2.45;;
75465;SDS011;64049;46.290;44.240;2022-10-16T02:09:24;6.65;;;2.25;;
75465;SDS011;64049;46.290;44.240;2022-10-16T02:11:52;6.25;;;2.63;;
75465;SDS011;64049;46.290;44.240;2022-10-16T02:14:20;6.45;;;2.38;;
75465;SDS011;64049;46.290;44.240;2022-10-16T02:16:49;6.13;;;2.30;;
75465;SDS011;64049;46.290;44.240;2022-10-16T02:19:16;6.07;;;2.30;;
75465;SDS011;64049;46.290;44.240;2022-10-16T02:21:58;6.60;;;2.38;;
75465;SDS011;64049;46.290;44.240;2022-10-16T02:27:05;7.80;;;2.15;;
75465;SDS011;64049;46.290;44.240;2022-10-16T02:29:37;8.77;;;2.47;;
75465;SDS011;64049;46.290;44.240;2022-10-16T02:32:06;9.88;;;2.67;;
75465;SDS011;64049;46.290;44.240;2022-10-16T02:34:35;6.00;;;2.58;;
75465;SDS011;64049;46.290;44.240;2022-10-16T02:37:03;6.90;;;2.55;;
75465;SDS011;64049;46.290;44.240;2022-10-16T02:39:30;6.80;;;2.40;;
75465;SDS011;64049;46.290;44.240;2022-10-16T02:41:57;5.53;;;2.55;;
75465;SDS011;64049;46.290;44.240;2022-10-16T02:44:23;8.30;;;2.95;;
75465;SDS011;64049;46.290;44.240;2022-10-16T02:46:48;4.13;;;1.75;;
75465;SDS011;64049;46.290;44.240;2022-10-16T02:49:14;6.72;;;2.80;;
75465;SDS011;64049;46.290;44.240;2022-10-16T02:51:40;6.78;;;2.75;;
75465;SDS011;64049;46.290;44.240;2022-10-16T02:54:06;7.88;;;2.60;;
75465;SDS011;64049;46.290;44.240;2022-10-16T02:56:32;8.57;;;2.70;;
75465;SDS011;64049;46.290;44.240;2022-10-16T02:58:58;7.68;;;2.70;;
75465;SDS011;64049;46.290;44.240;2022-10-16T03:01:24;6.45;;;2.50;;
75465;SDS011;64049;46.290;44.240;2022-10-16T03:03:50;6.40;;;2.47;;
75465;SDS011;64049;46.290;44.240;2022-10-16T03:06:16;6.57;;;2.60;;
75465;SDS011;64049;46.290;44.240;2022-10-16T03:08:42;5.82;;;2.25;;
75465;SDS011;64049;46.290;44.240;2022-10-16T03:11:08;7.43;;;2.50;;
75465;SDS011;64049;46.290;44.240;2022-10-16T03:13:34;7.57;;;3.53;;
75465;SDS011;64049;46.290;44.240;2022-10-16T03:16:00;10.50;;;2.90;;
75465;SDS011;64049;46.290;44.240;2022-10-16T03:18:26;6.07;;;2.38;;
75465;SDS011;64049;46.290;44.240;2022-10-16T03:20:52;6.85;;;2.70;;
75465;SDS011;64049;46.290;44.240;2022-10-16T03:23:17;7.30;;;2.47;;
75465;SDS011;64049;46.290;44.240;2022-10-16T03:25:43;5.90;;;3.10;;
75465;SDS011;64049;46.290;44.240;2022-10-16T03:28:09;10.05;;;3.10;;
75465;SDS011;64049;46.290;44.240;2022-10-16T03:30:35;7.18;;;2.95;;
75465;SDS011;64049;46.290;44.240;2022-10-16T03:33:01;7.03;;;3.20;;
75465;SDS011;64049;46.290;44.240;2022-10-16T03:35:27;6.43;;;2.53;;
75465;SDS011;64049;46.290;44.240;2022-10-16T03:37:53;6.88;;;2.65;;
75465;SDS011;64049;46.290;44.240;2022-10-16T03:40:19;7.82;;;3.15;;
75465;SDS011;64049;46.290;44.240;2022-10-16T03:42:45;5.53;;;2.47;;
75465;SDS011;64049;46.290;44.240;2022-10-16T03:45:11;7.13;;;2.47;;
75465;SDS011;64049;46.290;44.240;2022-10-16T03:47:37;7.70;;;2.72;;
75465;SDS011;64049;46.290;44.240;2022-10-16T03:50:04;6.90;;;3.00;;
75465;SDS011;64049;46.290;44.240;2022-10-16T03:52:30;11.25;;;3.60;;
75465;SDS011;64049;46.290;44.240;2022-10-16T03:54:57;6.70;;;3.25;;
75465;SDS011;64049;46.290;44.240;2022-10-16T03:57:23;7.88;;;2.92;;
75465;SDS011;64049;46.290;44.240;2022-10-16T03:59:49;7.80;;;2.83;;
75465;SDS011;64049;46.290;44.240;2022-10-16T04:02:16;5.28;;;2.47;;
75465;SDS011;64049;46.290;44.240;2022-10-16T04:04:42;6.88;;;2.75;;
75465;SDS011;64049;46.290;44.240;2022-10-16T04:07:08;7.57;;;2.50;;
75465;SDS011;64049;46.290;44.240;2022-10-16T04:09:33;7.05;;;3.45;;
75465;SDS011;64049;46.290;44.240;2022-10-16T04:11:59;7.18;;;2.97;;
75465;SDS011;64049;46.290;44.240;2022-10-16T04:14:25;9.60;;;2.97;;
75465;SDS011;64049;46.290;44.240;2022-10-16T04:16:51;8.73;;;2.53;;
75465;SDS011;64049;46.290;44.240;2022-10-16T04:19:17;6.43;;;2.65;;
75465;SDS011;64049;46.290;44.240;2022-10-16T04:21:43;5.75;;;2.80;;
75465;SDS011;64049;46.290;44.240;2022-10-16T04:24:09;6.07;;;2.63;;
75465;SDS011;64049;46.290;44.240;2022-10-16T04:26:36;7.45;;;2.60;;
75465;SDS011;64049;46.290;44.240;2022-10-16T04:29:03;9.50;;;3.20;;
75465;SDS011;64049;46.290;44.240;2022-10-16T04:31:29;7.90;;;3.20;;
75465;SDS011;64049;46.290;44.240;2022-10-16T04:33:55;6.85;;;3.10;;
75465;SDS011;64049;46.290;44.240;2022-10-16T04:36:21;6.20;;;2.50;;
75465;SDS011;64049;46.290;44.240;2022-10-16T04:38:47;6.95;;;2.72;;
75465;SDS011;64049;46.290;44.240;2022-10-16T04:41:13;7.10;;;2.70;;
75465;SDS011;64049;46.290;44.240;2022-10-16T04:43:39;6.28;;;2.50;;
75465;SDS011;64049;46.290;44.240;2022-10-16T04:46:05;6.10;;;2.35;;
75465;SDS011;64049;46.290;44.240;2022-10-16T04:48:31;5.50;;;2.30;;
75465;SDS011;64049;46.290;44.240;2022-10-16T04:50:57;6.03;;;2.38;;
75465;SDS011;64049;46.290;44.240;2022-10-16T04:53:23;6.18;;;2.85;;
75465;SDS011;64049;46.290;44.240;2022-10-16T04:55:49;5.53;;;1.92;;
75465;SDS011;64049;46.290;44.240;2022-10-16T04:58:16;8.75;;;2.33;;
75465;SDS011;64049;46.290;44.240;2022-10-16T05:00:43;5.18;;;2.45;;
75465;SDS011;64049;46.290;44.240;2022-10-16T05:05:41;8.25;;;2.80;;
75465;SDS011;64049;46.290;44.240;2022-10-16T05:08:08;6.35;;;2.28;;
75465;SDS011;64049;46.290;44.240;2022-10-16T05:10:34;6.30;;;2.30;;
75465;SDS011;64049;46.290;44.240;2022-10-16T05:13:00;6.30;;;2.83;;
75465;SDS011;64049;46.290;44.240;2022-10-16T05:15:26;5.70;;;2.50;;
75465;SDS011;64049;46.290;44.240;2022-10-16T05:17:53;5.47;;;2.42;;
75465;SDS011;64049;46.290;44.240;2022-10-16T05:20:19;4.80;;;2.10;;
75465;SDS011;64049;46.290;44.240;2022-10-16T05:22:45;6.07;;;2.08;;
75465;SDS011;64049;46.290;44.240;2022-10-16T05:25:11;7.43;;;2.30;;
75465;SDS011;64049;46.290;44.240;2022-10-16T05:27:37;7.22;;;2.50;;
75465;SDS011;64049;46.290;44.240;2022-10-16T05:30:03;5.35;;;1.67;;
75465;SDS011;64049;46.290;44.240;2022-10-16T05:32:30;7.45;;;2.78;;
75465;SDS011;64049;46.290;44.240;2022-10-16T05:34:55;7.70;;;2.05;;
75465;SDS011;64049;46.290;44.240;2022-10-16T05:37:21;14.50;;;2.63;;
75465;SDS011;64049;46.290;44.240;2022-10-16T05:39:47;7.55;;;1.65;;
75465;SDS011;64049;46.290;44.240;2022-10-16T05:42:13;6.28;;;2.03;;
75465;SDS011;64049;46.290;44.240;2022-10-16T05:44:40;6.07;;;2.25;;
75465;SDS011;64049;46.290;44.240;2022-10-16T05:47:06;3.90;;;1.60;;
75465;SDS011;64049;46.290;44.240;2022-10-16T05:49:32;5.25;;;2.30;;
75465;SDS011;64049;46.290;44.240;2022-10-16T05:51:58;5.55;;;2.20;;
75465;SDS011;64049;46.290;44.240;2022-10-16T05:54:24;5.00;;;2.00;;
75465;SDS011;64049;46.290;44.240;2022-10-16T05:56:49;4.68;;;1.60;;
75465;SDS011;64049;46.290;44.240;2022-10-16T05:59:15;5.88;;;1.85;;
75465;SDS011;64049;46.290;44.240;2022-10-16T06:01:41;4.35;;;1.98;;
75465;SDS011;64049;46.290;44.240;2022-10-16T06:04:08;4.18;;;1.60;;
75465;SDS011;64049;46.290;44.240;2022-10-16T06:06:34;6.40;;;1.20;;
75465;SDS011;64049;46.290;44.240;2022-10-16T06:09:01;5.50;;;1.77;;
75465;SDS011;64049;46.290;44.240;2022-10-16T06:11:29;5.20;;;1.45;;
75465;SDS011;64049;46.290;44.240;2022-10-16T06:13:57;6.38;;;1.77;;
75465;SDS011;64049;46.290;44.240;2022-10-16T06:16:27;5.65;;;1.58;;
75465;SDS011;64049;46.290;44.240;2022-10-16T06:18:53;5.80;;;1.45;;
75465;SDS011;64049;46.290;44.240;2022-10-16T06:21:22;4.53;;;1.67;;
75465;SDS011;64049;46.290;44.240;2022-10-16T06:23:52;6.75;;;1.83;;
75465;SDS011;64049;46.290;44.240;2022-10-16T06:26:20;4.38;;;1.55;;
75465;SDS011;64049;46.290;44.240;2022-10-16T06:28:48;6.80;;;1.48;;
75465;SDS011;64049;46.290;44.240;2022-10-16T06:31:14;4.78;;;1.27;;
75465;SDS011;64049;46.290;44.240;2022-10-16T06:33:40;3.70;;;1.40;;
75465;SDS011;64049;46.290;44.240;2022-10-16T06:36:11;7.25;;;1.40;;
75465;SDS011;64049;46.290;44.240;2022-10-16T06:38:39;3.05;;;0.90;;
75465;SDS011;64049;46.290;44.240;2022-10-16T06:41:05;4.28;;;1.20;;
75465;SDS011;64049;46.290;44.240;2022-10-16T06:43:32;5.15;;;1.33;;
75465;SDS011;64049;46.290;44.240;2022-10-16T06:46:00;8.75;;;1.45;;
75465;SDS011;64049;46.290;44.240;2022-10-16T06:48:28;7.07;;;1.48;;
75465;SDS011;64049;46.290;44.240;2022-10-16T06:50:55;5.38;;;1.08;;
75465;SDS011;64049;46.290;44.240;2022-10-16T06:53:25;4.18;;;1.20;;
75465;SDS011;64049;46.290;44.240;2022-10-16T06:58:18;3.00;;;0.90;;
75465;SDS011;64049;46.290;44.240;2022-10-16T07:00:44;5.55;;;1.10;;
75465;SDS011;64049;46.290;44.240;2022-10-16T07:03:11;3.78;;;1.05;;
75465;SDS011;64049;46.290;44.240;2022-10-16T07:05:37;3.10;;;1.02;;
75465;SDS011;64049;46.290;44.240;2022-10-16T07:08:04;5.05;;;0.90;;
75465;SDS011;64049;46.290;44.240;2022-10-16T07:10:31;4.18;;;1.20;;
75465;SDS011;64049;46.290;44.240;2022-10-16T07:12:58;2.50;;;0.90;;
75465;SDS011;64049;46.290;44.240;2022-10-16T07:15:24;2.60;;;0.98;;
75465;SDS011;64049;46.290;44.240;2022-10-16T07:17:50;3.63;;;1.10;;
75465;SDS011;64049;46.290;44.240;2022-10-16T07:20:16;5.10;;;1.15;;
75465;SDS011;64049;46.290;44.240;2022-10-16T07:22:42;2.95;;;0.90;;
75465;SDS011;64049;46.290;44.240;2022-10-16T07:25:08;6.35;;;1.30;;
75465;SDS011;64049;46.290;44.240;2022-10-16T07:27:34;4.70;;;1.00;;
75465;SDS011;64049;46.290;44.240;2022-10-16T07:30:00;2.55;;;0.90;;
75465;SDS011;64049;46.290;44.240;2022-10-16T07:32:26;3.70;;;1.10;;
75465;SDS011;64049;46.290;44.240;2022-10-16T07:34:52;2.22;;;0.77;;
75465;SDS011;64049;46.290;44.240;2022-10-16T07:37:21;2.28;;;0.82;;
75465;SDS011;64049;46.290;44.240;2022-10-16T07:39:47;3.28;;;1.08;;
75465;SDS011;64049;46.290;44.240;2022-10-16T07:42:13;3.20;;;0.85;;
75465;SDS011;64049;46.290;44.240;2022-10-16T07:44:39;4.50;;;1.02;;
75465;SDS011;64049;46.290;44.240;2022-10-16T07:47:06;2.67;;;0.70;;
75465;SDS011;64049;46.290;44.240;2022-10-16T07:49:32;3.67;;;0.95;;
75465;SDS011;64049;46.290;44.240;2022-10-16T07:51:58;2.97;;;0.82;;
75465;SDS011;64049;46.290;44.240;2022-10-16T07:54:24;4.10;;;1.00;;
75465;SDS011;64049;46.290;44.240;2022-10-16T07:56:50;4.55;;;0.95;;
75465;SDS011;64049;46.290;44.240;2022-10-16T07:59:16;2.92;;;0.80;;
75465;SDS011;64049;46.290;44.240;2022-10-16T08:01:42;4.28;;;0.80;;
75465;SDS011;64049;46.290;44.240;2022-10-16T08:04:08;4.63;;;0.73;;
75465;SDS011;64049;46.290;44.240;2022-10-16T08:06:35;3.42;;;0.80;;
75465;SDS011;64049;46.290;44.240;2022-10-16T08:09:02;4.28;;;1.00;;
75465;SDS011;64049;46.290;44.240;2022-10-16T08:11:28;3.60;;;0.60;;
75465;SDS011;64049;46.290;44.240;2022-10-16T08:13:54;3.42;;;0.80;;
75465;SDS011;64049;46.290;44.240;2022-10-16T08:16:20;2.15;;;0.73;;
75465;SDS011;64049;46.290;44.240;2022-10-16T08:18:47;5.60;;;1.00;;
75465;SDS011;64049;46.290;44.240;2022-10-16T08:21:14;1.98;;;0.70;;
75465;SDS011;64049;46.290;44.240;2022-10-16T08:23:41;7.03;;;0.80;;
75465;SDS011;64049;46.290;44.240;2022-10-16T08:26:08;2.40;;;0.70;;
75465;SDS011;64049;46.290;44.240;2022-10-16T08:28:34;2.00;;;0.50;;
75465;SDS011;64049;46.290;44.240;2022-10-16T08:31:19;3.65;;;0.90;;
75465;SDS011;64049;46.290;44.240;2022-10-16T08:33:46;5.68;;;0.80;;
75465;SDS011;64049;46.290;44.240;2022-10-16T08:36:13;3.00;;;0.90;;
75465;SDS011;64049;46.290;44.240;2022-10-16T08:43:55;4.00;;;1.02;;
75465;SDS011;64049;46.290;44.240;2022-10-16T08:46:51;4.22;;;1.00;;
75465;SDS011;64049;46.290;44.240;2022-10-16T08:49:43;4.07;;;0.93;;
75465;SDS011;64049;46.290;44.240;2022-10-16T08:52:20;4.78;;;1.52;;
75465;SDS011;64049;46.290;44.240;2022-10-16T08:54:46;1.95;;;0.77;;
75465;SDS011;64049;46.290;44.240;2022-10-16T08:57:16;3.70;;;0.93;;
75465;SDS011;64049;46.290;44.240;2022-10-16T08:59:45;3.90;;;0.88;;
75465;SDS011;64049;46.290;44.240;2022-10-16T09:02:33;3.85;;;0.85;;
75465;SDS011;64049;46.290;44.240;2022-10-16T09:10:38;4.15;;;1.17;;
75465;SDS011;64049;46.290;44.240;2022-10-16T09:15:44;4.15;;;0.80;;
75465;SDS011;64049;46.290;44.240;2022-10-16T09:21:25;2.70;;;0.60;;
75465;SDS011;64049;46.290;44.240;2022-10-16T09:24:20;3.97;;;0.88;;
75465;SDS011;64049;46.290;44.240;2022-10-16T09:26:49;3.67;;;1.05;;
75465;SDS011;64049;46.290;44.240;2022-10-16T09:29:16;4.45;;;0.65;;
75465;SDS011;64049;46.290;44.240;2022-10-16T09:31:45;4.03;;;1.58;;
75465;SDS011;64049;46.290;44.240;2022-10-16T09:34:24;4.15;;;0.80;;
75465;SDS011;64049;46.290;44.240;2022-10-16T09:36:58;2.40;;;0.70;;
75465;SDS011;64049;46.290;44.240;2022-10-16T09:39:26;4.07;;;0.90;;
75465;SDS011;64049;46.290;44.240;2022-10-16T09:41:51;3.38;;;1.00;;
75465;SDS011;64049;46.290;44.240;2022-10-16T09:47:11;5.30;;;0.90;;
75465;SDS011;64049;46.290;44.240;2022-10-16T09:49:56;3.03;;;0.70;;
75465;SDS011;64049;46.290;44.240;2022-10-16T09:52:31;6.63;;;1.10;;
75465;SDS011;64049;46.290;44.240;2022-10-16T09:54:59;3.53;;;0.80;;
75465;SDS011;64049;46.290;44.240;2022-10-16T09:57:27;2.85;;;0.85;;
75465;SDS011;64049;46.290;44.240;2022-10-16T09:59:56;4.95;;;0.90;;
75465;SDS011;64049;46.290;44.240;2022-10-16T10:05:06;3.45;;;1.10;;
75465;SDS011;64049;46.290;44.240;2022-10-16T10:07:44;2.20;;;0.70;;
75465;SDS011;64049;46.290;44.240;2022-10-16T10:10:21;6.22;;;1.17;;
75465;SDS011;64049;46.290;44.240;2022-10-16T10:12:50;5.65;;;1.00;;
75465;SDS011;64049;46.290;44.240;2022-10-16T10:15:17;2.67;;;0.85;;
75465;SDS011;64049;46.290;44.240;2022-10-16T10:17:48;5.75;;;0.77;;
75465;SDS011;64049;46.290;44.240;2022-10-16T10:20:28;3.03;;;1.00;;
75465;SDS011;64049;46.290;44.240;2022-10-16T10:22:58;3.78;;;1.25;;
75465;SDS011;64049;46.290;44.240;2022-10-16T10:31:01;2.72;;;0.80;;
75465;SDS011;64049;46.290;44.240;2022-10-16T10:33:49;3.42;;;0.88;;
75465;SDS011;64049;46.290;44.240;2022-10-16T10:36:51;4.65;;;1.10;;
75465;SDS011;64049;46.290;44.240;2022-10-16T10:39:43;2.70;;;0.60;;
75465;SDS011;64049;46.290;44.240;2022-10-16T10:42:17;4.13;;;0.70;;
75465;SDS011;64049;46.290;44.240;2022-10-16T10:44:57;3.83;;;0.90;;
75465;SDS011;64049;46.290;44.240;2022-10-16T10:50:22;3.58;;;0.98;;
75465;SDS011;64049;46.290;44.240;2022-10-16T10:53:05;3.13;;;0.80;;
75465;SDS011;64049;46.290;44.240;2022-10-16T10:58:43;3.83;;;0.90;;
75465;SDS011;64049;46.290;44.240;2022-10-16T11:07:09;2.58;;;0.80;;
75465;SDS011;64049;46.290;44.240;2022-10-16T11:09:45;7.80;;;1.20;;
75465;SDS011;64049;46.290;44.240;2022-10-16T11:20:37;4.35;;;0.90;;
75465;SDS011;64049;46.290;44.240;2022-10-16T11:23:30;6.20;;;1.20;;
75465;SDS011;64049;46.290;44.240;2022-10-16T11:26:05;5.47;;;1.25;;
75465;SDS011;64049;46.290;44.240;2022-10-16T11:34:03;3.97;;;1.08;;
75465;SDS011;64049;46.290;44.240;2022-10-16T11:36:50;5.65;;;2.10;;
75465;SDS011;64049;46.290;44.240;2022-10-16T11:44:36;6.60;;;1.98;;
75465;SDS011;64049;46.290;44.240;2022-10-16T11:47:33;3.42;;;0.70;;
75465;SDS011;64049;46.290;44.240;2022-10-16T11:50:09;4.57;;;1.17;;
75465;SDS011;64049;46.290;44.240;2022-10-16T12:04:11;3.60;;;1.02;;
75465;SDS011;64049;46.290;44.240;2022-10-16T12:09:24;2.83;;;0.60;;
75465;SDS011;64049;46.290;44.240;2022-10-16T12:11:55;2.58;;;0.70;;
75465;SDS011;64049;46.290;44.240;2022-10-16T12:16:54;4.47;;;0.75;;
75465;SDS011;64049;46.290;44.240;2022-10-16T12:19:25;3.05;;;0.80;;
75465;SDS011;64049;46.290;44.240;2022-10-16T12:21:56;2.95;;;0.60;;
75465;SDS011;64049;46.290;44.240;2022-10-16T12:26:59;2.90;;;0.70;;
75465;SDS011;64049;46.290;44.240;2022-10-16T12:29:32;2.33;;;0.65;;
75465;SDS011;64049;46.290;44.240;2022-10-16T12:32:27;5.80;;;1.27;;
75465;SDS011;64049;46.290;44.240;2022-10-16T12:34:53;3.38;;;0.50;;
75465;SDS011;64049;46.290;44.240;2022-10-16T12:37:24;2.60;;;0.70;;
75465;SDS011;64049;46.290;44.240;2022-10-16T12:39:57;3.58;;;0.90;;
75465;SDS011;64049;46.290;44.240;2022-10-16T12:44:53;2.85;;;0.70;;
75465;SDS011;64049;46.290;44.240;2022-10-16T12:47:47;2.13;;;0.70;;
75465;SDS011;64049;46.290;44.240;2022-10-16T12:52:59;4.45;;;0.88;;
75465;SDS011;64049;46.290;44.240;2022-10-16T13:03:22;3.60;;;0.65;;
75465;SDS011;64049;46.290;44.240;2022-10-16T13:13:56;3.10;;;0.80;;
75465;SDS011;64049;46.290;44.240;2022-10-16T13:16:52;3.08;;;0.73;;
75465;SDS011;64049;46.290;44.240;2022-10-16T13:22:58;4.60;;;0.90;;
75465;SDS011;64049;46.290;44.240;2022-10-16T13:28:10;3.53;;;1.02;;
75465;SDS011;64049;46.290;44.240;2022-10-16T13:30:41;6.68;;;0.88;;
75465;SDS011;64049;46.290;44.240;2022-10-16T13:35:35;11.15;;;1.08;;
75465;SDS011;64049;46.290;44.240;2022-10-16T13:38:05;8.27;;;2.08;;
75465;SDS011;64049;46.290;44.240;2022-10-16T13:43:45;4.18;;;1.20;;
75465;SDS011;64049;46.290;44.240;2022-10-16T13:46:15;6.28;;;1.33;;
75465;SDS011;64049;46.290;44.240;2022-10-16T13:48:56;5.72;;;1.20;;
75465;SDS011;64049;46.290;44.240;2022-10-16T13:51:23;4.05;;;1.10;;
75465;SDS011;64049;46.290;44.240;2022-10-16T13:53:49;7.20;;;1.52;;
75465;SDS011;64049;46.290;44.240;2022-10-16T13:56:17;3.47;;;1.00;;
75465;SDS011;64049;46.290;44.240;2022-10-16T13:58:45;3.85;;;1.13;;
75465;SDS011;64049;46.290;44.240;2022-10-16T14:01:19;8.05;;;1.38;;
75465;SDS011;64049;46.290;44.240;2022-10-16T14:03:50;5.50;;;1.42;;
75465;SDS011;64049;46.290;44.240;2022-10-16T14:06:17;4.93;;;1.73;;
75465;SDS011;64049;46.290;44.240;2022-10-16T14:08:50;5.35;;;1.30;;
75465;SDS011;64049;46.290;44.240;2022-10-16T14:11:33;6.43;;;2.30;;
75465;SDS011;64049;46.290;44.240;2022-10-16T14:14:04;7.35;;;2.10;;
75465;SDS011;64049;46.290;44.240;2022-10-16T14:16:30;13.25;;;3.28;;
75465;SDS011;64049;46.290;44.240;2022-10-16T14:19:01;9.50;;;2.58;;
75465;SDS011;64049;46.290;44.240;2022-10-16T14:21:31;9.80;;;3.15;;
75465;SDS011;64049;46.290;44.240;2022-10-16T14:23:59;7.68;;;1.80;;
75465;SDS011;64049;46.290;44.240;2022-10-16T14:26:40;6.07;;;2.10;;
75465;SDS011;64049;46.290;44.240;2022-10-16T14:29:10;9.25;;;2.13;;
75465;SDS011;64049;46.290;44.240;2022-10-16T14:31:38;9.75;;;3.17;;
75465;SDS011;64049;46.290;44.240;2022-10-16T14:34:05;12.13;;;3.63;;
75465;SDS011;64049;46.290;44.240;2022-10-16T14:39:51;14.18;;;3.72;;
75465;SDS011;64049;46.290;44.240;2022-10-16T14:42:18;8.05;;;2.30;;
75465;SDS011;64049;46.290;44.240;2022-10-16T14:44:48;9.05;;;2.58;;
75465;SDS011;64049;46.290;44.240;2022-10-16T14:47:19;8.80;;;2.42;;
75465;SDS011;64049;46.290;44.240;2022-10-16T14:49:50;6.38;;;2.13;;
75465;SDS011;64049;46.290;44.240;2022-10-16T14:52:17;7.43;;;2.10;;
75465;SDS011;64049;46.290;44.240;2022-10-16T14:54:43;5.78;;;2.10;;
75465;SDS011;64049;46.290;44.240;2022-10-16T14:57:17;11.00;;;2.50;;
75465;SDS011;64049;46.290;44.240;2022-10-16T14:59:44;9.38;;;2.25;;
75465;SDS011;64049;46.290;44.240;2022-10-16T15:04:47;7.40;;;2.17;;
75465;SDS011;64049;46.290;44.240;2022-10-16T15:07:14;7.43;;;1.73;;
75465;SDS011;64049;46.290;44.240;2022-10-16T15:09:40;5.72;;;1.65;;
75465;SDS011;64049;46.290;44.240;2022-10-16T15:12:06;5.13;;;1.58;;
75465;SDS011;64049;46.290;44.240;2022-10-16T15:14:32;9.35;;;2.03;;
75465;SDS011;64049;46.290;44.240;2022-10-16T15:16:58;7.97;;;2.60;;
75465;SDS011;64049;46.290;44.240;2022-10-16T15:19:24;6.25;;;1.88;;
75465;SDS011;64049;46.290;44.240;2022-10-16T15:21:50;7.13;;;1.70;;
75465;SDS011;64049;46.290;44.240;2022-10-16T15:24:17;4.93;;;1.35;;
75465;SDS011;64049;46.290;44.240;2022-10-16T15:26:43;5.63;;;1.40;;
75465;SDS011;64049;46.290;44.240;2022-10-16T15:29:11;6.40;;;1.50;;
75465;SDS011;64049;46.290;44.240;2022-10-16T15:31:38;3.13;;;0.88;;
75465;SDS011;64049;46.290;44.240;2022-10-16T15:34:08;5.38;;;1.10;;
75465;SDS011;64049;46.290;44.240;2022-10-16T15:36:36;3.40;;;0.90;;
75465;SDS011;64049;46.290;44.240;2022-10-16T15:39:03;3.70;;;1.20;;
75465;SDS011;64049;46.290;44.240;2022-10-16T15:41:30;2.53;;;0.80;;
75465;SDS011;64049;46.290;44.240;2022-10-16T15:43:56;2.58;;;0.90;;
75465;SDS011;64049;46.290;44.240;2022-10-16T15:46:23;4.15;;;0.80;;
75465;SDS011;64049;46.290;44.240;2022-10-16T15:48:50;3.75;;;0.82;;
75465;SDS011;64049;46.290;44.240;2022-10-16T15:51:21;2.13;;;0.65;;
75465;SDS011;64049;46.290;44.240;2022-10-16T15:53:46;2.92;;;0.80;;
75465;SDS011;64049;46.290;44.240;2022-10-16T15:56:14;3.15;;;0.88;;
75465;SDS011;64049;46.290;44.240;2022-10-16T15:58:41;3.13;;;0.80;;
75465;SDS011;64049;46.290;44.240;2022-10-16T16:01:08;3.53;;;0.90;;
75465;SDS011;64049;46.290;44.240;2022-10-16T16:03:35;3.35;;;0.90;;
75465;SDS011;64049;46.290;44.240;2022-10-16T16:06:09;2.88;;;0.80;;
75465;SDS011;64049;46.290;44.240;2022-10-16T16:08:37;3.38;;;0.95;;
75465;SDS011;64049;46.290;44.240;2022-10-16T16:11:05;5.47;;;0.80;;
75465;SDS011;64049;46.290;44.240;2022-10-16T16:13:33;3.47;;;0.88;;
75465;SDS011;64049;46.290;44.240;2022-10-16T16:15:59;2.67;;;0.80;;
75465;SDS011;64049;46.290;44.240;2022-10-16T16:18:25;2.85;;;0.90;;
75465;SDS011;64049;46.290;44.240;2022-10-16T16:20:51;2.47;;;0.73;;
75465;SDS011;64049;46.290;44.240;2022-10-16T16:23:17;4.88;;;0.80;;
75465;SDS011;64049;46.290;44.240;2022-10-16T16:25:45;5.95;;;0.88;;
75465;SDS011;64049;46.290;44.240;2022-10-16T16:28:11;3.38;;;0.90;;
75465;SDS011;64049;46.290;44.240;2022-10-16T16:30:39;3.35;;;1.10;;
75465;SDS011;64049;46.290;44.240;2022-10-16T16:33:06;2.25;;;0.60;;
75465;SDS011;64049;46.290;44.240;2022-10-16T16:35:32;3.15;;;0.77;;
75465;SDS011;64049;46.290;44.240;2022-10-16T16:37:58;5.93;;;1.10;;
75465;SDS011;64049;46.290;44.240;2022-10-16T16:40:24;3.30;;;0.95;;
75465;SDS011;64049;46.290;44.240;2022-10-16T16:42:50;2.53;;;0.80;;
75465;SDS011;64049;46.290;44.240;2022-10-16T16:45:16;2.70;;;0.75;;
75465;SDS011;64049;46.290;44.240;2022-10-16T16:47:42;4.60;;;0.98;;
75465;SDS011;64049;46.290;44.240;2022-10-16T16:50:08;3.17;;;0.80;;
75465;SDS011;64049;46.290;44.240;2022-10-16T16:52:34;1.90;;;0.60;;
75465;SDS011;64049;46.290;44.240;2022-10-16T16:55:00;2.50;;;0.70;;
75465;SDS011;64049;46.290;44.240;2022-10-16T16:57:27;2.20;;;0.80;;